createdAt,value
2023-05-12T00:00:26.286Z,3.78
2023-05-12T00:02:53.532Z,3.50
2023-05-12T00:05:20.884Z,3.90
2023-05-12T00:07:48.182Z,3.45
2023-05-12T00:10:15.342Z,3.92
2023-05-12T00:12:42.565Z,3.38
2023-05-12T00:15:10.014Z,4.40
2023-05-12T00:17:37.276Z,3.85
2023-05-12T00:20:04.823Z,4.05
2023-05-12T00:22:32.128Z,3.88
2023-05-12T00:24:59.265Z,4.03
2023-05-12T00:27:26.455Z,3.92
2023-05-12T00:29:53.591Z,3.42
2023-05-12T00:32:20.815Z,4.10
2023-05-12T00:34:47.990Z,3.50
2023-05-12T00:37:15.206Z,3.17
2023-05-12T00:39:42.367Z,3.90
2023-05-12T00:42:09.776Z,3.57
2023-05-12T00:44:37.188Z,4.13
2023-05-12T00:47:04.888Z,4.00
2023-05-12T00:49:32.420Z,3.53
2023-05-12T00:51:59.820Z,3.70
2023-05-12T00:54:27.809Z,3.50
2023-05-12T00:56:55.318Z,3.85
2023-05-12T00:59:22.582Z,3.53
2023-05-12T01:01:50.398Z,3.78
2023-05-12T01:04:17.729Z,4.05
2023-05-12T01:06:44.890Z,4.13
2023-05-12T01:09:12.103Z,3.15
2023-05-12T01:11:39.234Z,4.00
2023-05-12T01:14:06.409Z,4.10
2023-05-12T01:16:38.601Z,3.93
2023-05-12T01:19:10.851Z,3.93
2023-05-12T01:21:38.068Z,4.00
2023-05-12T01:24:08.058Z,4.13
2023-05-12T01:26:35.971Z,4.20
2023-05-12T01:29:03.598Z,4.32
2023-05-12T01:31:32.993Z,4.37
2023-05-12T01:34:00.806Z,3.97
2023-05-12T01:36:27.995Z,4.45
2023-05-12T01:38:55.753Z,4.23
2023-05-12T01:41:22.932Z,4.13
2023-05-12T01:43:50.084Z,3.72
2023-05-12T01:46:17.261Z,4.27
2023-05-12T01:48:44.474Z,4.28
2023-05-12T01:51:11.737Z,4.30
2023-05-12T01:53:38.927Z,4.22
2023-05-12T01:56:06.217Z,4.03
2023-05-12T01:58:33.387Z,4.30
2023-05-12T02:01:00.590Z,3.93
2023-05-12T02:03:27.801Z,4.10
2023-05-12T02:05:55.025Z,3.87
2023-05-12T02:08:22.321Z,4.40
2023-05-12T02:10:49.472Z,4.23
2023-05-12T02:13:16.725Z,4.10
2023-05-12T02:15:43.918Z,4.17
2023-05-12T02:18:11.096Z,4.47
2023-05-12T02:20:38.355Z,5.07
2023-05-12T02:23:05.693Z,4.30
2023-05-12T02:25:32.919Z,4.50
2023-05-12T02:28:00.170Z,4.60
2023-05-12T02:30:27.331Z,4.37
2023-05-12T02:32:54.503Z,4.43
2023-05-12T02:35:21.742Z,3.97
2023-05-12T02:37:48.938Z,4.60
2023-05-12T02:40:16.304Z,4.77
2023-05-12T02:42:43.877Z,3.97
2023-05-12T02:45:11.300Z,4.50
2023-05-12T02:47:38.551Z,4.40
2023-05-12T02:50:06.248Z,4.30
2023-05-12T02:52:33.383Z,4.10
2023-05-12T02:55:00.562Z,4.47
2023-05-12T02:57:32.990Z,4.40
2023-05-12T03:00:07.901Z,4.30
2023-05-12T03:02:36.060Z,4.17
2023-05-12T03:05:04.148Z,4.40
2023-05-12T03:07:31.331Z,4.87
2023-05-12T03:09:58.724Z,4.37
2023-05-12T03:12:25.977Z,4.53
2023-05-12T03:14:53.119Z,4.90
2023-05-12T03:17:20.321Z,4.17
2023-05-12T03:19:47.624Z,4.10
2023-05-12T03:22:15.076Z,4.27
2023-05-12T03:24:42.360Z,5.13
2023-05-12T03:27:11.828Z,4.60
2023-05-12T03:29:39.025Z,5.20
2023-05-12T03:32:06.452Z,4.57
2023-05-12T03:34:33.688Z,4.70
2023-05-12T03:37:00.890Z,4.60
2023-05-12T03:39:28.002Z,4.37
2023-05-12T03:41:55.135Z,4.43
2023-05-12T03:44:22.320Z,4.73
2023-05-12T03:46:49.563Z,4.63
2023-05-12T03:49:17.187Z,4.80
2023-05-12T03:51:44.398Z,4.13
2023-05-12T03:54:12.933Z,5.23
2023-05-12T03:56:40.184Z,4.30
2023-05-12T03:59:07.384Z,4.50
2023-05-12T04:01:35.645Z,4.60
2023-05-12T04:04:03.185Z,4.17
2023-05-12T04:06:31.769Z,4.50
2023-05-12T04:08:59.482Z,4.50
2023-05-12T04:11:26.663Z,4.80
2023-05-12T04:13:54.180Z,4.40
2023-05-12T04:16:21.416Z,4.60
2023-05-12T04:18:49.426Z,5.03
2023-05-12T04:21:16.595Z,5.23
2023-05-12T04:23:43.783Z,4.77
2023-05-12T04:26:12.344Z,4.90
2023-05-12T04:28:39.524Z,5.03
2023-05-12T04:31:06.757Z,4.60
2023-05-12T04:33:35.041Z,4.10
2023-05-12T04:36:02.355Z,4.57
2023-05-12T04:38:29.565Z,4.50
2023-05-12T04:41:00.066Z,4.57
2023-05-12T04:45:59.399Z,4.27
2023-05-12T04:48:27.496Z,4.50
2023-05-12T04:50:54.687Z,4.47
2023-05-12T04:53:21.836Z,5.03
2023-05-12T04:55:50.091Z,5.07
2023-05-12T04:58:17.285Z,4.83
2023-05-12T05:00:44.573Z,4.20
2023-05-12T05:03:12.050Z,4.32
2023-05-12T05:05:39.298Z,4.22
2023-05-12T05:08:06.497Z,6.35
2023-05-12T05:10:34.080Z,5.50
2023-05-12T05:13:01.291Z,4.15
2023-05-12T05:15:28.496Z,4.60
2023-05-12T05:17:55.787Z,4.70
2023-05-12T05:20:27.822Z,5.03
2023-05-12T05:22:56.203Z,4.70
2023-05-12T05:25:23.744Z,4.00
2023-05-12T05:27:50.897Z,4.28
2023-05-12T05:30:18.079Z,3.95
2023-05-12T05:32:45.600Z,4.60
2023-05-12T05:35:13.338Z,4.22
2023-05-12T05:37:40.708Z,5.00
2023-05-12T05:40:08.209Z,3.88
2023-05-12T05:42:35.449Z,3.95
2023-05-12T05:45:02.946Z,5.15
2023-05-12T05:47:31.564Z,4.78
2023-05-12T05:49:58.984Z,4.75
2023-05-12T05:52:26.244Z,4.65
2023-05-12T05:54:53.398Z,4.80
2023-05-12T05:57:21.301Z,4.43
2023-05-12T05:59:48.519Z,4.72
2023-05-12T06:02:17.185Z,4.68
2023-05-12T06:04:44.384Z,4.45
2023-05-12T06:07:11.676Z,4.05
2023-05-12T06:09:38.842Z,3.85
2023-05-12T06:12:06.079Z,4.80
2023-05-12T06:14:33.234Z,4.38
2023-05-12T06:17:00.439Z,4.80
2023-05-12T06:19:27.728Z,4.63
2023-05-12T06:21:54.861Z,4.07
2023-05-12T06:24:22.013Z,4.00
2023-05-12T06:26:49.192Z,4.28
2023-05-12T06:29:16.477Z,4.32
2023-05-12T06:31:43.686Z,4.50
2023-05-12T06:34:12.161Z,4.32
2023-05-12T06:36:39.810Z,4.80
2023-05-12T06:39:07.051Z,4.18
2023-05-12T06:41:34.273Z,4.53
2023-05-12T06:44:02.378Z,4.15
2023-05-12T06:46:29.638Z,3.85
2023-05-12T06:48:56.982Z,4.60
2023-05-12T06:51:24.172Z,3.85
2023-05-12T06:53:51.601Z,3.72
2023-05-12T06:56:18.741Z,4.78
2023-05-12T06:58:46.428Z,4.95
2023-05-12T07:01:13.672Z,4.40
2023-05-12T07:03:41.356Z,4.53
2023-05-12T07:06:09.746Z,3.75
2023-05-12T07:08:36.912Z,3.95
2023-05-12T07:11:04.081Z,3.95
2023-05-12T07:13:31.242Z,3.58
2023-05-12T07:15:58.443Z,3.53
2023-05-12T07:18:25.845Z,3.55
2023-05-12T07:20:53.347Z,3.85
2023-05-12T07:23:20.677Z,3.67
2023-05-12T07:25:48.223Z,3.70
2023-05-12T07:28:15.488Z,3.65
2023-05-12T07:30:42.951Z,4.20
2023-05-12T07:33:10.269Z,4.82
2023-05-12T07:35:37.460Z,3.75
2023-05-12T07:38:04.720Z,3.65
2023-05-12T07:40:31.987Z,3.30
2023-05-12T07:42:59.198Z,3.40
2023-05-12T07:45:26.495Z,3.60
2023-05-12T07:47:53.679Z,3.40
2023-05-12T07:50:21.415Z,3.05
2023-05-12T07:52:52.235Z,3.97
2023-05-12T07:55:21.339Z,3.15
2023-05-12T07:57:50.303Z,3.08
2023-05-12T08:00:18.152Z,3.00
2023-05-12T08:02:45.329Z,3.53
2023-05-12T08:05:12.631Z,3.47
2023-05-12T08:07:43.449Z,3.17
2023-05-12T08:10:11.961Z,3.20
2023-05-12T08:12:40.581Z,3.15
2023-05-12T08:15:08.314Z,2.88
2023-05-12T08:17:35.510Z,2.88
2023-05-12T08:20:04.687Z,3.42
2023-05-12T08:22:32.236Z,2.83
2023-05-12T08:24:59.429Z,3.30
2023-05-12T08:27:26.659Z,4.03
2023-05-12T08:29:53.915Z,3.08
2023-05-12T08:32:21.311Z,2.95
2023-05-12T08:34:48.561Z,2.95
2023-05-12T08:37:15.744Z,3.00
2023-05-12T08:39:43.026Z,2.83
2023-05-12T08:42:19.435Z,3.10
2023-05-12T08:44:47.348Z,3.75
2023-05-12T08:47:16.443Z,2.90
2023-05-12T08:49:44.919Z,2.55
2023-05-12T08:52:12.963Z,2.78
2023-05-12T08:54:52.266Z,2.88
2023-05-12T08:57:22.711Z,2.78
2023-05-12T08:59:49.994Z,3.30
2023-05-12T09:02:18.142Z,2.92
2023-05-12T09:04:45.446Z,2.50
2023-05-12T09:07:12.907Z,2.83
2023-05-12T09:09:40.777Z,2.50
2023-05-12T09:12:10.157Z,3.30
2023-05-12T09:14:39.130Z,2.88
2023-05-12T09:17:07.175Z,2.50
2023-05-12T09:19:35.125Z,2.33
2023-05-12T09:22:02.451Z,2.10
2023-05-12T09:24:36.469Z,3.70
2023-05-12T09:27:04.147Z,2.92
2023-05-12T09:29:37.326Z,2.70
2023-05-12T09:32:09.654Z,2.58
2023-05-12T09:34:38.558Z,2.47
2023-05-12T09:37:06.851Z,2.70
2023-05-12T09:39:34.368Z,2.10
2023-05-12T09:42:01.584Z,2.78
2023-05-12T09:44:31.643Z,2.83
2023-05-12T09:47:07.563Z,2.60
2023-05-12T09:49:34.717Z,2.63
2023-05-12T09:52:01.911Z,2.15
2023-05-12T09:54:30.231Z,2.60
2023-05-12T09:57:06.908Z,2.70
2023-05-12T09:59:36.101Z,2.55
2023-05-12T10:02:05.956Z,2.42
2023-05-12T10:04:39.408Z,2.83
2023-05-12T10:07:09.472Z,2.63
2023-05-12T10:09:39.351Z,3.00
2023-05-12T10:12:06.696Z,2.67
2023-05-12T10:14:34.388Z,2.83
2023-05-12T10:17:01.604Z,2.78
2023-05-12T10:19:30.464Z,3.00
2023-05-12T10:21:58.394Z,2.63
2023-05-12T10:24:28.805Z,3.15
2023-05-12T10:26:59.695Z,2.72
2023-05-12T10:29:29.913Z,2.97
2023-05-12T10:31:58.047Z,2.50
2023-05-12T10:34:30.425Z,2.85
2023-05-12T10:36:59.191Z,2.42
2023-05-12T10:39:30.248Z,3.28
2023-05-12T10:42:10.058Z,2.35
2023-05-12T10:44:38.498Z,3.03
2023-05-12T10:47:15.143Z,2.58
2023-05-12T10:49:43.239Z,2.20
2023-05-12T10:52:12.589Z,2.28
2023-05-12T10:54:44.589Z,2.10
2023-05-12T10:57:18.837Z,2.72
2023-05-12T10:59:53.459Z,1.95
2023-05-12T11:02:26.450Z,2.30
2023-05-12T11:04:59.307Z,2.25
2023-05-12T11:07:31.696Z,2.95
2023-05-12T11:10:01.650Z,2.60
2023-05-12T11:12:32.387Z,2.50
2023-05-12T11:15:00.764Z,2.85
2023-05-12T11:17:28.063Z,2.17
2023-05-12T11:19:55.798Z,2.78
2023-05-12T11:22:23.698Z,2.50
2023-05-12T11:24:52.731Z,2.70
2023-05-12T11:27:21.158Z,2.67
2023-05-12T11:30:01.918Z,2.40
2023-05-12T11:32:30.118Z,3.33
2023-05-12T11:35:08.280Z,2.97
2023-05-12T11:37:39.738Z,2.95
2023-05-12T11:40:17.044Z,2.95
2023-05-12T11:42:48.526Z,2.90
2023-05-12T11:45:28.924Z,3.13
2023-05-12T11:48:11.507Z,2.40
2023-05-12T11:50:42.904Z,3.53
2023-05-12T11:53:15.313Z,2.70
2023-05-12T11:55:52.879Z,3.17
2023-05-12T11:58:27.241Z,3.13
2023-05-12T12:00:55.087Z,4.43
2023-05-12T12:03:22.432Z,2.83
2023-05-12T12:06:00.623Z,2.60
2023-05-12T12:08:28.070Z,2.72
2023-05-12T12:10:55.468Z,2.50
2023-05-12T12:13:23.721Z,2.50
2023-05-12T12:15:51.294Z,2.95
2023-05-12T12:18:19.193Z,3.67
2023-05-12T12:20:47.580Z,3.05
2023-05-12T12:23:15.013Z,2.90
2023-05-12T12:25:42.278Z,2.92
2023-05-12T12:28:09.617Z,2.80
2023-05-12T12:30:37.025Z,2.40
2023-05-12T12:33:04.311Z,2.55
2023-05-12T12:35:31.796Z,2.67
2023-05-12T12:37:59.245Z,2.13
2023-05-12T12:40:26.637Z,2.97
2023-05-12T12:42:54.066Z,3.58
2023-05-12T12:45:21.344Z,2.72
2023-05-12T12:47:52.165Z,3.38
2023-05-12T12:50:19.462Z,3.13
2023-05-12T12:52:48.061Z,2.72
2023-05-12T12:55:15.292Z,2.80
2023-05-12T12:57:42.518Z,2.60
2023-05-12T13:00:10.047Z,2.40
2023-05-12T13:02:37.318Z,2.40
2023-05-12T13:05:07.081Z,2.80
2023-05-12T13:07:34.567Z,4.43
2023-05-12T13:10:01.758Z,2.60
2023-05-12T13:12:30.516Z,2.60
2023-05-12T13:15:00.143Z,2.10
2023-05-12T13:17:27.524Z,2.88
2023-05-12T13:19:54.771Z,2.60
2023-05-12T13:22:22.740Z,2.50
2023-05-12T13:24:49.967Z,2.50
2023-05-12T13:27:17.137Z,2.58
2023-05-12T13:29:47.222Z,2.50
2023-05-12T13:32:15.137Z,2.95
2023-05-12T13:34:42.524Z,2.53
2023-05-12T13:37:11.943Z,2.92
2023-05-12T13:39:39.095Z,2.60
2023-05-12T13:42:06.489Z,3.17
2023-05-12T13:44:33.688Z,2.58
2023-05-12T13:47:01.014Z,2.50
2023-05-12T13:49:28.162Z,2.30
2023-05-12T13:51:55.485Z,2.50
2023-05-12T13:54:23.960Z,2.95
2023-05-12T13:56:51.165Z,3.55
2023-05-12T13:59:18.319Z,2.80
2023-05-12T14:01:45.701Z,2.95
2023-05-12T14:04:13.359Z,2.80
2023-05-12T14:06:40.866Z,3.00
2023-05-12T14:09:08.088Z,3.28
2023-05-12T14:11:35.846Z,2.30
2023-05-12T14:14:06.862Z,2.47
2023-05-12T14:16:34.105Z,4.05
2023-05-12T14:19:04.538Z,2.63
2023-05-12T14:21:32.394Z,2.53
2023-05-12T14:23:59.577Z,3.20
2023-05-12T14:26:26.821Z,2.97
2023-05-12T14:28:54.075Z,2.92
2023-05-12T14:31:28.199Z,2.83
2023-05-12T14:33:55.819Z,3.58
2023-05-12T14:36:23.079Z,3.10
2023-05-12T14:38:50.302Z,2.92
2023-05-12T14:41:17.458Z,2.17
2023-05-12T14:43:44.646Z,2.92
2023-05-12T14:46:12.090Z,2.60
2023-05-12T14:48:39.395Z,3.00
2023-05-12T14:51:06.869Z,2.83
2023-05-12T14:53:34.229Z,2.45
2023-05-12T14:56:01.476Z,2.78
2023-05-12T14:58:28.694Z,2.47
2023-05-12T15:00:56.816Z,2.45
2023-05-12T15:03:24.644Z,2.35
2023-05-12T15:08:22.117Z,2.55
2023-05-12T15:10:49.473Z,2.35
2023-05-12T15:13:20.025Z,2.22
2023-05-12T15:15:50.271Z,2.80
2023-05-12T15:18:24.862Z,3.10
2023-05-12T15:20:52.122Z,2.40
2023-05-12T15:23:19.240Z,2.42
2023-05-12T15:25:46.451Z,2.70
2023-05-12T15:28:13.860Z,2.17
2023-05-12T15:30:41.066Z,2.40
2023-05-12T15:33:08.562Z,2.60
2023-05-12T15:35:35.883Z,2.50
2023-05-12T15:38:03.072Z,2.50
2023-05-12T15:40:31.112Z,2.90
2023-05-12T15:42:58.490Z,2.88
2023-05-12T15:45:25.644Z,2.80
2023-05-12T15:47:56.433Z,2.50
2023-05-12T15:50:23.606Z,2.63
2023-05-12T15:52:50.855Z,3.08
2023-05-12T15:55:18.441Z,2.75
2023-05-12T15:57:45.901Z,2.88
2023-05-12T16:00:13.654Z,2.72
2023-05-12T16:02:43.437Z,3.45
2023-05-12T16:05:12.629Z,2.22
2023-05-12T16:07:39.946Z,2.78
2023-05-12T16:10:07.277Z,2.60
2023-05-12T16:12:37.445Z,2.42
2023-05-12T16:15:05.105Z,2.65
2023-05-12T16:17:32.409Z,2.63
2023-05-12T16:19:59.595Z,2.72
2023-05-12T16:22:26.786Z,2.65
2023-05-12T16:24:55.629Z,2.47
2023-05-12T16:27:22.801Z,2.70
2023-05-12T16:29:53.623Z,2.97
2023-05-12T16:32:20.931Z,2.95
2023-05-12T16:34:48.445Z,3.75
2023-05-12T16:37:15.586Z,2.35
2023-05-12T16:39:42.744Z,2.60
2023-05-12T16:42:09.936Z,3.22
2023-05-12T16:44:37.044Z,2.90
2023-05-12T16:47:04.343Z,2.30
2023-05-12T16:49:31.510Z,2.80
2023-05-12T16:51:58.692Z,2.22
2023-05-12T16:54:26.081Z,2.70
2023-05-12T16:59:21.485Z,2.67
2023-05-12T17:01:48.661Z,2.22
2023-05-12T17:04:16.558Z,2.20
2023-05-12T17:06:44.051Z,2.88
2023-05-12T17:09:11.338Z,2.50
2023-05-12T17:11:38.647Z,2.70
2023-05-12T17:14:05.827Z,2.47
2023-05-12T17:16:33.123Z,2.45
2023-05-12T17:21:30.872Z,3.13
2023-05-12T17:23:58.365Z,3.05
2023-05-12T17:26:27.629Z,2.40
2023-05-12T17:28:57.349Z,2.72
2023-05-12T17:31:24.586Z,2.78
2023-05-12T17:33:52.422Z,2.70
2023-05-12T17:36:20.980Z,2.60
2023-05-12T17:38:48.176Z,3.25
2023-05-12T17:41:16.186Z,2.63
2023-05-12T17:43:43.465Z,2.75
2023-05-12T17:46:10.723Z,2.70
2023-05-12T17:48:38.675Z,2.42
2023-05-12T17:51:06.244Z,2.83
2023-05-12T17:53:33.619Z,3.00
2023-05-12T17:56:01.389Z,2.70
2023-05-12T17:58:28.583Z,2.92
2023-05-12T18:00:55.855Z,3.05
2023-05-12T18:03:25.922Z,3.60
2023-05-12T18:05:54.259Z,3.13
2023-05-12T18:08:21.890Z,3.10
2023-05-12T18:10:49.422Z,3.03
2023-05-12T18:13:16.681Z,3.15
2023-05-12T18:15:43.826Z,3.13
2023-05-12T18:18:14.651Z,2.70
2023-05-12T18:20:42.337Z,2.78
2023-05-12T18:23:09.554Z,3.55
2023-05-12T18:25:36.786Z,3.08
2023-05-12T18:28:04.149Z,3.35
2023-05-12T18:30:31.366Z,3.38
2023-05-12T18:32:58.575Z,2.67
2023-05-12T18:35:27.014Z,3.35
2023-05-12T18:37:54.526Z,3.03
2023-05-12T18:40:22.028Z,2.63
2023-05-12T18:42:49.188Z,2.88
2023-05-12T18:45:18.543Z,3.60
2023-05-12T18:47:46.203Z,3.30
2023-05-12T18:50:13.466Z,2.67
2023-05-12T18:52:42.834Z,2.90
2023-05-12T18:55:10.891Z,2.88
2023-05-12T18:57:38.326Z,3.03
2023-05-12T19:00:05.807Z,3.22
2023-05-12T19:02:32.967Z,3.47
2023-05-12T19:05:00.689Z,3.35
2023-05-12T19:07:27.852Z,3.30
2023-05-12T19:09:55.175Z,3.35
2023-05-12T19:12:22.283Z,3.13
2023-05-12T19:14:49.412Z,3.53
2023-05-12T19:17:17.122Z,3.30
2023-05-12T19:19:44.288Z,3.13
2023-05-12T19:22:11.433Z,3.10
2023-05-12T19:24:38.829Z,3.05
2023-05-12T19:27:06.199Z,3.60
2023-05-12T19:29:33.367Z,3.00
2023-05-12T19:32:00.681Z,4.85
2023-05-12T19:34:29.579Z,5.00
2023-05-12T19:37:00.702Z,3.90
2023-05-12T19:39:28.328Z,4.47
2023-05-12T19:41:55.577Z,5.05
2023-05-12T19:44:22.975Z,4.05
2023-05-12T19:46:50.907Z,3.80
2023-05-12T19:49:18.158Z,4.03
2023-05-12T19:51:45.810Z,3.47
2023-05-12T19:54:13.395Z,3.75
2023-05-12T19:56:40.771Z,3.17
2023-05-12T19:59:07.913Z,3.22
2023-05-12T20:01:35.266Z,3.50
2023-05-12T20:04:02.775Z,3.42
2023-05-12T20:06:29.901Z,3.20
2023-05-12T20:08:57.091Z,3.63
2023-05-12T20:11:25.036Z,3.47
2023-05-12T20:13:52.167Z,3.40
2023-05-12T20:16:19.353Z,3.35
2023-05-12T20:18:46.518Z,3.40
2023-05-12T20:21:13.692Z,3.70
2023-05-12T20:23:40.889Z,3.13
2023-05-12T20:26:08.406Z,3.15
2023-05-12T20:28:35.661Z,2.92
2023-05-12T20:31:03.024Z,3.33
2023-05-12T20:33:30.185Z,3.50
2023-05-12T20:35:57.331Z,3.70
2023-05-12T20:38:24.854Z,3.25
2023-05-12T20:40:52.187Z,2.90
2023-05-12T20:43:19.370Z,3.42
2023-05-12T20:45:46.502Z,3.58
2023-05-12T20:48:14.223Z,4.05
2023-05-12T20:50:42.193Z,3.25
2023-05-12T20:53:09.498Z,3.20
2023-05-12T20:55:36.768Z,4.05
2023-05-12T20:58:03.969Z,3.58
2023-05-12T21:00:31.211Z,3.53
2023-05-12T21:02:59.617Z,3.28
2023-05-12T21:05:26.950Z,3.42
2023-05-12T21:07:54.177Z,3.72
2023-05-12T21:10:21.758Z,3.30
2023-05-12T21:12:49.096Z,3.65
2023-05-12T21:15:16.471Z,3.53
2023-05-12T21:17:43.748Z,3.42
2023-05-12T21:20:11.801Z,4.10
2023-05-12T21:22:40.680Z,3.92
2023-05-12T21:25:10.147Z,3.80
2023-05-12T21:27:40.912Z,3.60
2023-05-12T21:30:09.065Z,4.78
2023-05-12T21:32:36.612Z,4.32
2023-05-12T21:35:03.959Z,3.78
2023-05-12T21:37:31.244Z,4.00
2023-05-12T21:39:58.485Z,3.35
2023-05-12T21:42:25.930Z,3.65
2023-05-12T21:44:53.411Z,3.60
2023-05-12T21:47:20.684Z,3.17
2023-05-12T21:49:47.907Z,3.78
2023-05-12T21:52:16.021Z,3.53
2023-05-12T21:54:43.285Z,3.50
2023-05-12T21:57:10.546Z,4.22
2023-05-12T21:59:37.696Z,4.10
2023-05-12T22:02:04.981Z,3.30
2023-05-12T22:04:35.401Z,3.22
2023-05-12T22:07:02.597Z,3.58
2023-05-12T22:09:31.288Z,3.50
2023-05-12T22:12:01.347Z,3.92
2023-05-12T22:14:31.457Z,3.88
2023-05-12T22:16:58.697Z,3.50
2023-05-12T22:19:26.059Z,3.75
2023-05-12T22:21:57.067Z,4.00
2023-05-12T22:24:24.633Z,3.45
2023-05-12T22:26:51.788Z,3.97
2023-05-12T22:29:18.914Z,3.60
2023-05-12T22:31:46.176Z,4.28
2023-05-12T22:34:13.511Z,3.72
2023-05-12T22:36:43.556Z,3.67
2023-05-12T22:39:13.369Z,3.85
2023-05-12T22:41:41.804Z,3.75
2023-05-12T22:44:09.070Z,3.85
2023-05-12T22:46:36.242Z,4.13
2023-05-12T22:49:03.931Z,3.85
2023-05-12T22:51:31.872Z,3.80
2023-05-12T22:54:02.006Z,3.80
2023-05-12T22:56:29.173Z,3.97
2023-05-12T22:58:56.369Z,4.03
2023-05-12T23:01:23.651Z,4.10
2023-05-12T23:03:53.835Z,3.83
2023-05-12T23:06:21.123Z,3.92
2023-05-12T23:08:48.292Z,3.53
2023-05-12T23:11:15.995Z,3.53
2023-05-12T23:13:45.830Z,3.72
2023-05-12T23:16:13.070Z,3.90
2023-05-12T23:18:40.324Z,4.47
2023-05-12T23:21:07.507Z,3.83
2023-05-12T23:23:34.673Z,3.97
2023-05-12T23:26:01.808Z,4.70
2023-05-12T23:28:29.638Z,4.15
2023-05-12T23:30:56.867Z,4.32
2023-05-12T23:33:24.487Z,4.15
2023-05-12T23:35:51.745Z,3.78
2023-05-12T23:38:18.933Z,3.97
2023-05-12T23:40:48.939Z,4.50
2023-05-12T23:43:16.144Z,3.90
2023-05-12T23:45:43.412Z,4.60
2023-05-12T23:48:10.713Z,4.13
2023-05-12T23:50:37.913Z,4.20
2023-05-12T23:53:05.110Z,3.97
2023-05-12T23:55:32.694Z,4.20
2023-05-12T23:58:00.046Z,4.82
